Kendallville, Iowa
Current Conditions -  °F | °C
As of 5:55 PM on Sunday 23 Nov 2014 (Local Time) from KFKA Reporting Station
Drizzle Drizzle  
Wind Chill: 46°   Ceiling: 100
Heat Index: 46°   Visibility: 0.5mi
Dew Point: 46°   Wind: 0mph
Humidity: 99%   Direction: NA
Pressure: 29.33"   Gusts: NA
Location:  43.363°N, 92.1685°W
Report Text: KFKA 232355Z AUTO 00000KT 1/2SM -DZ OVC001 08/08 A2933 RMK AO2 P0003 60003 T00770075 10087 20077
Loading
Personal Weather Stations






























Interactive Weather Map New forecast layout! Learn more

10-Day Weather Forecast

Advertisements
Track Severe Weather on mobile